sensor_id;sensor_type;location;lat;lon;timestamp;pressure;altitude;pressure_sealevel;temperature;humidity
21096;BME280;10706;49.036;12.112;2024-01-30T00:02:07;99236.91;;;0.95;78.48
21096;BME280;10706;49.036;12.112;2024-01-30T00:04:32;99229.88;;;1.05;77.14
21096;BME280;10706;49.036;12.112;2024-01-30T00:06:58;99239.09;;;0.90;77.39
21096;BME280;10706;49.036;12.112;2024-01-30T00:09:24;99235.94;;;0.96;76.90
21096;BME280;10706;49.036;12.112;2024-01-30T00:11:49;99232.19;;;0.99;77.29
21096;BME280;10706;49.036;12.112;2024-01-30T00:14:15;99234.00;;;0.98;77.97
21096;BME280;10706;49.036;12.112;2024-01-30T00:16:41;99231.78;;;0.93;77.23
21096;BME280;10706;49.036;12.112;2024-01-30T00:19:07;99228.47;;;1.01;77.76
21096;BME280;10706;49.036;12.112;2024-01-30T00:21:33;99226.53;;;1.03;78.23
21096;BME280;10706;49.036;12.112;2024-01-30T00:23:59;99224.88;;;0.92;77.66
21096;BME280;10706;49.036;12.112;2024-01-30T00:26:25;99236.19;;;0.73;78.87
21096;BME280;10706;49.036;12.112;2024-01-30T00:28:51;99234.19;;;0.56;79.53
21096;BME280;10706;49.036;12.112;2024-01-30T00:31:17;99236.84;;;0.66;79.31
21096;BME280;10706;49.036;12.112;2024-01-30T00:33:42;99236.81;;;0.56;79.76
21096;BME280;10706;49.036;12.112;2024-01-30T00:36:09;99230.19;;;0.62;80.27
21096;BME280;10706;49.036;12.112;2024-01-30T00:38:35;99234.59;;;0.51;80.00
21096;BME280;10706;49.036;12.112;2024-01-30T00:41:01;99231.53;;;0.46;80.48
21096;BME280;10706;49.036;12.112;2024-01-30T00:43:28;99224.88;;;0.42;79.56
21096;BME280;10706;49.036;12.112;2024-01-30T00:45:54;99224.75;;;0.44;79.89
21096;BME280;10706;49.036;12.112;2024-01-30T00:48:20;99225.59;;;0.44;79.25
21096;BME280;10706;49.036;12.112;2024-01-30T00:50:46;99227.28;;;0.55;79.27
21096;BME280;10706;49.036;12.112;2024-01-30T00:53:12;99228.09;;;0.55;78.98
21096;BME280;10706;49.036;12.112;2024-01-30T00:55:38;99234.59;;;0.51;79.61
21096;BME280;10706;49.036;12.112;2024-01-30T00:58:04;99223.44;;;0.69;79.66
21096;BME280;10706;49.036;12.112;2024-01-30T01:00:30;99226.06;;;0.78;79.87
21096;BME280;10706;49.036;12.112;2024-01-30T01:02:56;99228.56;;;0.80;79.97
21096;BME280;10706;49.036;12.112;2024-01-30T01:05:22;99227.44;;;0.63;80.83
21096;BME280;10706;49.036;12.112;2024-01-30T01:07:48;99227.66;;;0.50;80.49
21096;BME280;10706;49.036;12.112;2024-01-30T01:10:14;99223.09;;;0.52;79.48
21096;BME280;10706;49.036;12.112;2024-01-30T01:12:42;99228.63;;;0.40;80.51
21096;BME280;10706;49.036;12.112;2024-01-30T01:15:08;99224.88;;;0.42;80.48
21096;BME280;10706;49.036;12.112;2024-01-30T01:17:38;99219.66;;;0.52;79.83
21096;BME280;10706;49.036;12.112;2024-01-30T01:20:05;99224.06;;;0.42;80.00
21096;BME280;10706;49.036;12.112;2024-01-30T01:22:32;99225.53;;;0.25;80.44
21096;BME280;10706;49.036;12.112;2024-01-30T01:24:59;99225.59;;;0.44;80.78
21096;BME280;10706;49.036;12.112;2024-01-30T01:27:25;99222.16;;;0.63;79.53
21096;BME280;10706;49.036;12.112;2024-01-30T01:29:51;99217.78;;;0.73;79.91
21096;BME280;10706;49.036;12.112;2024-01-30T01:32:17;99224.13;;;0.81;81.12
21096;BME280;10706;49.036;12.112;2024-01-30T01:34:43;99221.94;;;0.95;80.60
21096;BME280;10706;49.036;12.112;2024-01-30T01:37:09;99223.63;;;1.06;80.85
21096;BME280;10706;49.036;12.112;2024-01-30T01:39:35;99222.25;;;1.12;79.80
21096;BME280;10706;49.036;12.112;2024-01-30T01:42:01;99227.38;;;1.04;80.17
21096;BME280;10706;49.036;12.112;2024-01-30T01:44:27;99227.06;;;1.07;80.72
21096;BME280;10706;49.036;12.112;2024-01-30T01:46:54;99212.13;;;0.97;80.26
21096;BME280;10706;49.036;12.112;2024-01-30T01:49:27;99215.84;;;0.85;80.58
21096;BME280;10706;49.036;12.112;2024-01-30T01:51:55;99219.75;;;0.91;79.65
21096;BME280;10706;49.036;12.112;2024-01-30T01:54:23;99210.72;;;0.93;80.36
21096;BME280;10706;49.036;12.112;2024-01-30T01:56:50;99212.41;;;0.85;80.32
21096;BME280;10706;49.036;12.112;2024-01-30T01:59:18;99215.41;;;0.70;79.98
21096;BME280;10706;49.036;12.112;2024-01-30T02:01:43;99205.28;;;0.56;80.90
21096;BME280;10706;49.036;12.112;2024-01-30T02:04:11;99205.28;;;0.56;80.08
21096;BME280;10706;49.036;12.112;2024-01-30T02:06:37;99201.38;;;0.50;80.72
21096;BME280;10706;49.036;12.112;2024-01-30T02:09:03;99204.81;;;0.41;80.35
21096;BME280;10706;49.036;12.112;2024-01-30T02:11:30;99202.59;;;0.36;81.13
21096;BME280;10706;49.036;12.112;2024-01-30T02:13:56;99208.41;;;-0.01;81.72
21096;BME280;10706;49.036;12.112;2024-01-30T02:16:21;99207.72;;;0.07;81.55
21096;BME280;10706;49.036;12.112;2024-01-30T02:18:47;99216.47;;;-0.13;82.83
21096;BME280;10706;49.036;12.112;2024-01-30T02:21:17;99213.41;;;0.03;82.13
21096;BME280;10706;49.036;12.112;2024-01-30T02:23:44;99211.31;;;-0.04;81.71
21096;BME280;10706;49.036;12.112;2024-01-30T02:26:12;99211.22;;;0.08;81.91
21096;BME280;10706;49.036;12.112;2024-01-30T02:28:38;99212.13;;;-0.03;81.47
21096;BME280;10706;49.036;12.112;2024-01-30T02:31:04;99205.91;;;-0.02;81.57
21096;BME280;10706;49.036;12.112;2024-01-30T02:33:30;99206.69;;;-0.11;81.74
21096;BME280;10706;49.036;12.112;2024-01-30T02:35:56;99214.44;;;-0.10;81.67
21096;BME280;10706;49.036;12.112;2024-01-30T02:38:22;99203.19;;;0.09;80.82
21096;BME280;10706;49.036;12.112;2024-01-30T02:40:49;99203.81;;;-0.08;80.64
21096;BME280;10706;49.036;12.112;2024-01-30T02:43:16;99203.84;;;0.02;80.17
21096;BME280;10706;49.036;12.112;2024-01-30T02:45:42;99199.81;;;-0.03;80.32
21096;BME280;10706;49.036;12.112;2024-01-30T02:48:08;99205.78;;;-0.01;79.74
21096;BME280;10706;49.036;12.112;2024-01-30T02:50:34;99196.59;;;-0.37;80.83
21096;BME280;10706;49.036;12.112;2024-01-30T02:53:00;99202.31;;;-0.32;80.56
21096;BME280;10706;49.036;12.112;2024-01-30T02:55:26;99208.13;;;-0.70;82.42
21096;BME280;10706;49.036;12.112;2024-01-30T02:57:51;99207.59;;;-0.85;83.47
21096;BME280;10706;49.036;12.112;2024-01-30T03:00:19;99207.16;;;-0.69;82.32
21096;BME280;10706;49.036;12.112;2024-01-30T03:02:45;99204.59;;;-0.81;82.41
21096;BME280;10706;49.036;12.112;2024-01-30T03:05:11;99205.44;;;-0.59;82.42
21096;BME280;10706;49.036;12.112;2024-01-30T03:07:37;99213.00;;;-0.66;81.53
21096;BME280;10706;49.036;12.112;2024-01-30T03:10:04;99206.72;;;-0.53;82.18
21096;BME280;10706;49.036;12.112;2024-01-30T03:12:31;99206.06;;;-0.46;81.07
21096;BME280;10706;49.036;12.112;2024-01-30T03:14:57;99204.84;;;-0.42;81.13
21096;BME280;10706;49.036;12.112;2024-01-30T03:17:23;99212.78;;;-0.53;80.71
21096;BME280;10706;49.036;12.112;2024-01-30T03:19:50;99201.09;;;-0.49;80.73
21096;BME280;10706;49.036;12.112;2024-01-30T03:22:15;99209.53;;;-0.66;81.29
21096;BME280;10706;49.036;12.112;2024-01-30T03:24:41;99208.44;;;-0.64;81.23
21096;BME280;10706;49.036;12.112;2024-01-30T03:27:08;99207.41;;;-0.72;81.93
21096;BME280;10706;49.036;12.112;2024-01-30T03:29:33;99212.06;;;-0.76;81.79
21096;BME280;10706;49.036;12.112;2024-01-30T03:31:59;99219.16;;;-0.88;82.15
21096;BME280;10706;49.036;12.112;2024-01-30T03:34:25;99221.91;;;-0.89;82.26
21096;BME280;10706;49.036;12.112;2024-01-30T03:36:50;99206.53;;;-0.62;81.29
21096;BME280;10706;49.036;12.112;2024-01-30T03:39:17;99219.81;;;-0.74;81.47
21096;BME280;10706;49.036;12.112;2024-01-30T03:41:43;99215.41;;;-0.74;81.28
21096;BME280;10706;49.036;12.112;2024-01-30T03:44:10;99215.09;;;-0.81;82.20
21096;BME280;10706;49.036;12.112;2024-01-30T03:46:36;99219.56;;;-0.71;81.83
21096;BME280;10706;49.036;12.112;2024-01-30T03:49:02;99222.53;;;-0.97;81.81
21096;BME280;10706;49.036;12.112;2024-01-30T03:51:28;99214.66;;;-0.97;81.46
21096;BME280;10706;49.036;12.112;2024-01-30T03:53:53;99218.47;;;-0.90;81.55
21096;BME280;10706;49.036;12.112;2024-01-30T03:56:19;99210.94;;;-0.94;82.26
21096;BME280;10706;49.036;12.112;2024-01-30T03:58:45;99211.59;;;-0.81;82.25
21096;BME280;10706;49.036;12.112;2024-01-30T04:01:14;99216.06;;;-0.93;82.36
21096;BME280;10706;49.036;12.112;2024-01-30T04:03:41;99208.97;;;-1.02;82.74
21096;BME280;10706;49.036;12.112;2024-01-30T04:06:07;99213.72;;;-1.07;82.89
21096;BME280;10706;49.036;12.112;2024-01-30T04:08:34;99211.56;;;-1.02;82.77
21096;BME280;10706;49.036;12.112;2024-01-30T04:11:06;99216.34;;;-1.07;82.93
21096;BME280;10706;49.036;12.112;2024-01-30T04:13:33;99212.66;;;-1.05;83.16
21096;BME280;10706;49.036;12.112;2024-01-30T04:16:00;99214.59;;;-1.07;83.02
21096;BME280;10706;49.036;12.112;2024-01-30T04:18:29;99216.13;;;-1.04;82.75
21096;BME280;10706;49.036;12.112;2024-01-30T04:20:55;99212.00;;;-1.18;82.94
21096;BME280;10706;49.036;12.112;2024-01-30T04:23:21;99218.31;;;-1.21;83.14
21096;BME280;10706;49.036;12.112;2024-01-30T04:25:47;99215.44;;;-1.18;83.35
21096;BME280;10706;49.036;12.112;2024-01-30T04:28:12;99216.53;;;-1.20;82.69
21096;BME280;10706;49.036;12.112;2024-01-30T04:30:39;99215.44;;;-1.18;83.10
21096;BME280;10706;49.036;12.112;2024-01-30T04:33:04;99216.41;;;-1.30;83.18
21096;BME280;10706;49.036;12.112;2024-01-30T04:35:30;99218.13;;;-1.51;83.12
21096;BME280;10706;49.036;12.112;2024-01-30T04:37:56;99214.16;;;-1.23;82.72
21096;BME280;10706;49.036;12.112;2024-01-30T04:40:22;99208.78;;;-1.22;83.19
21096;BME280;10706;49.036;12.112;2024-01-30T04:42:48;99217.31;;;-1.08;82.43
21096;BME280;10706;49.036;12.112;2024-01-30T04:45:13;99211.50;;;-1.12;82.19
21096;BME280;10706;49.036;12.112;2024-01-30T04:47:39;99212.81;;;-1.18;82.07
21096;BME280;10706;49.036;12.112;2024-01-30T04:50:07;99206.03;;;-1.09;81.74
21096;BME280;10706;49.036;12.112;2024-01-30T04:52:34;99206.97;;;-1.10;80.98
21096;BME280;10706;49.036;12.112;2024-01-30T04:55:00;99206.38;;;-1.13;80.79
21096;BME280;10706;49.036;12.112;2024-01-30T04:57:25;99210.16;;;-1.06;81.45
21096;BME280;10706;49.036;12.112;2024-01-30T04:59:51;99207.19;;;-1.13;82.00
21096;BME280;10706;49.036;12.112;2024-01-30T05:02:17;99207.59;;;-1.18;81.76
21096;BME280;10706;49.036;12.112;2024-01-30T05:04:43;99204.56;;;-1.13;81.11
21096;BME280;10706;49.036;12.112;2024-01-30T05:07:08;99212.72;;;-1.16;82.50
21096;BME280;10706;49.036;12.112;2024-01-30T05:09:34;99206.84;;;-1.08;81.59
21096;BME280;10706;49.036;12.112;2024-01-30T05:12:00;99207.00;;;-1.21;81.93
21096;BME280;10706;49.036;12.112;2024-01-30T05:14:26;99204.75;;;-1.26;81.93
21096;BME280;10706;49.036;12.112;2024-01-30T05:16:51;99193.50;;;-1.17;81.39
21096;BME280;10706;49.036;12.112;2024-01-30T05:19:17;99197.94;;;-1.17;81.56
21096;BME280;10706;49.036;12.112;2024-01-30T05:21:43;99198.44;;;-1.23;81.77
21096;BME280;10706;49.036;12.112;2024-01-30T05:24:09;99201.09;;;-1.02;80.61
21096;BME280;10706;49.036;12.112;2024-01-30T05:26:36;99201.22;;;-1.04;80.45
21096;BME280;10706;49.036;12.112;2024-01-30T05:29:02;99204.41;;;-1.00;80.68
21096;BME280;10706;49.036;12.112;2024-01-30T05:31:28;99204.41;;;-1.00;80.52
21096;BME280;10706;49.036;12.112;2024-01-30T05:33:54;99205.03;;;-1.08;81.96
21096;BME280;10706;49.036;12.112;2024-01-30T05:36:20;99198.31;;;-1.22;81.93
21096;BME280;10706;49.036;12.112;2024-01-30T05:38:47;99209.13;;;-1.15;81.95
21096;BME280;10706;49.036;12.112;2024-01-30T05:41:13;99201.56;;;-1.29;81.77
21096;BME280;10706;49.036;12.112;2024-01-30T05:43:38;99203.59;;;-1.33;82.74
21096;BME280;10706;49.036;12.112;2024-01-30T05:46:04;99201.72;;;-1.10;82.55
21096;BME280;10706;49.036;12.112;2024-01-30T05:48:30;99203.72;;;-1.02;81.38
21096;BME280;10706;49.036;12.112;2024-01-30T05:50:56;99208.44;;;-0.96;81.58
21096;BME280;10706;49.036;12.112;2024-01-30T05:53:22;99202.34;;;-1.18;81.10
21096;BME280;10706;49.036;12.112;2024-01-30T05:55:48;99202.66;;;-1.11;81.19
21096;BME280;10706;49.036;12.112;2024-01-30T05:58:13;99202.00;;;-1.24;82.23
21096;BME280;10706;49.036;12.112;2024-01-30T06:00:39;99205.84;;;-1.40;82.97
21096;BME280;10706;49.036;12.112;2024-01-30T06:03:05;99208.16;;;-1.14;83.00
21096;BME280;10706;49.036;12.112;2024-01-30T06:05:31;99207.75;;;-0.98;82.82
21096;BME280;10706;49.036;12.112;2024-01-30T06:07:56;99206.56;;;-1.05;83.02
21096;BME280;10706;49.036;12.112;2024-01-30T06:10:22;99212.59;;;-1.14;83.09
21096;BME280;10706;49.036;12.112;2024-01-30T06:12:48;99211.66;;;-1.25;82.82
21096;BME280;10706;49.036;12.112;2024-01-30T06:15:13;99221.78;;;-1.20;83.63
21096;BME280;10706;49.036;12.112;2024-01-30T06:17:39;99225.66;;;-1.03;83.99
21096;BME280;10706;49.036;12.112;2024-01-30T06:20:06;99229.97;;;-0.81;83.18
21096;BME280;10706;49.036;12.112;2024-01-30T06:22:32;99231.56;;;-0.90;83.89
21096;BME280;10706;49.036;12.112;2024-01-30T06:24:58;99243.41;;;-0.74;84.01
21096;BME280;10706;49.036;12.112;2024-01-30T06:27:24;99244.75;;;-0.80;85.46
21096;BME280;10706;49.036;12.112;2024-01-30T06:29:50;99246.56;;;-0.60;84.67
21096;BME280;10706;49.036;12.112;2024-01-30T06:32:15;99246.25;;;-0.45;83.80
21096;BME280;10706;49.036;12.112;2024-01-30T06:34:41;99242.75;;;-0.34;83.25
21096;BME280;10706;49.036;12.112;2024-01-30T06:37:12;99247.34;;;-0.48;83.54
21096;BME280;10706;49.036;12.112;2024-01-30T06:39:38;99244.28;;;-0.32;83.56
21096;BME280;10706;49.036;12.112;2024-01-30T06:42:04;99247.34;;;-0.27;82.97
21096;BME280;10706;49.036;12.112;2024-01-30T06:44:30;99241.44;;;-0.19;83.48
21096;BME280;10706;49.036;12.112;2024-01-30T06:46:56;99246.44;;;-0.16;83.17
21096;BME280;10706;49.036;12.112;2024-01-30T06:49:22;99249.94;;;-0.06;83.48
21096;BME280;10706;49.036;12.112;2024-01-30T06:51:48;99245.34;;;-0.13;83.44
21096;BME280;10706;49.036;12.112;2024-01-30T06:54:13;99251.25;;;-0.21;84.28
21096;BME280;10706;49.036;12.112;2024-01-30T06:56:40;99253.31;;;-0.04;83.80
21096;BME280;10706;49.036;12.112;2024-01-30T06:59:06;99246.22;;;-0.13;84.04
21096;BME280;10706;49.036;12.112;2024-01-30T07:01:32;99246.34;;;-0.14;83.91
21096;BME280;10706;49.036;12.112;2024-01-30T07:03:58;99250.84;;;0.05;83.74
21096;BME280;10706;49.036;12.112;2024-01-30T07:06:24;99248.75;;;-0.02;83.18
21096;BME280;10706;49.036;12.112;2024-01-30T07:08:50;99247.81;;;0.09;83.65
21096;BME280;10706;49.036;12.112;2024-01-30T07:11:22;99252.69;;;0.14;84.54
21096;BME280;10706;49.036;12.112;2024-01-30T07:13:50;99252.19;;;0.30;84.11
21096;BME280;10706;49.036;12.112;2024-01-30T07:16:17;99251.50;;;0.28;84.00
21096;BME280;10706;49.036;12.112;2024-01-30T07:18:44;99248.38;;;0.34;83.95
21096;BME280;10706;49.036;12.112;2024-01-30T07:21:10;99258.22;;;0.42;83.80
21096;BME280;10706;49.036;12.112;2024-01-30T07:23:36;99256.31;;;0.53;84.17
21096;BME280;10706;49.036;12.112;2024-01-30T07:26:05;99251.75;;;0.55;84.28
21096;BME280;10706;49.036;12.112;2024-01-30T07:28:32;99251.41;;;0.80;83.38
21096;BME280;10706;49.036;12.112;2024-01-30T07:30:58;99252.25;;;0.90;83.14
21096;BME280;10706;49.036;12.112;2024-01-30T07:33:24;99255.16;;;0.87;83.89
21096;BME280;10706;49.036;12.112;2024-01-30T07:35:54;99257.25;;;1.03;82.24
21096;BME280;10706;49.036;12.112;2024-01-30T07:38:20;99251.31;;;1.01;82.82
21096;BME280;10706;49.036;12.112;2024-01-30T07:40:46;99259.19;;;1.10;83.20
21096;BME280;10706;49.036;12.112;2024-01-30T07:43:12;99254.75;;;0.91;83.24
21096;BME280;10706;49.036;12.112;2024-01-30T07:45:38;99266.69;;;1.15;82.75
21096;BME280;10706;49.036;12.112;2024-01-30T07:48:06;99265.59;;;1.27;82.58
21096;BME280;10706;49.036;12.112;2024-01-30T07:50:31;99265.75;;;1.45;81.39
21096;BME280;10706;49.036;12.112;2024-01-30T07:53:00;99262.97;;;1.47;81.18
21096;BME280;10706;49.036;12.112;2024-01-30T07:55:26;99267.13;;;1.30;81.74
21096;BME280;10706;49.036;12.112;2024-01-30T07:57:55;99264.91;;;1.64;80.80
21096;BME280;10706;49.036;12.112;2024-01-30T08:00:21;99267.81;;;1.42;81.23
21096;BME280;10706;49.036;12.112;2024-01-30T08:02:47;99267.50;;;1.74;81.03
21096;BME280;10706;49.036;12.112;2024-01-30T08:05:14;99273.06;;;1.51;80.45
21096;BME280;10706;49.036;12.112;2024-01-30T08:07:41;99274.03;;;1.60;82.20
21096;BME280;10706;49.036;12.112;2024-01-30T08:10:08;99271.97;;;1.64;81.83
21096;BME280;10706;49.036;12.112;2024-01-30T08:12:34;99278.06;;;1.64;81.09
21096;BME280;10706;49.036;12.112;2024-01-30T08:15:00;99273.47;;;1.76;79.68
21096;BME280;10706;49.036;12.112;2024-01-30T08:17:26;99286.25;;;1.71;80.42
21096;BME280;10706;49.036;12.112;2024-01-30T08:19:51;99285.09;;;1.83;79.58
21096;BME280;10706;49.036;12.112;2024-01-30T08:22:17;99282.59;;;2.01;80.07
21096;BME280;10706;49.036;12.112;2024-01-30T08:24:43;99281.69;;;2.30;78.09
21096;BME280;10706;49.036;12.112;2024-01-30T08:27:09;99280.22;;;2.45;77.76
21096;BME280;10706;49.036;12.112;2024-01-30T08:29:38;99276.13;;;2.23;78.92
21096;BME280;10706;49.036;12.112;2024-01-30T08:32:05;99280.44;;;2.24;78.80
21096;BME280;10706;49.036;12.112;2024-01-30T08:34:32;99274.41;;;2.42;78.89
21096;BME280;10706;49.036;12.112;2024-01-30T08:36:57;99270.94;;;2.41;78.01
21096;BME280;10706;49.036;12.112;2024-01-30T08:39:23;99272.19;;;2.47;77.66
21096;BME280;10706;49.036;12.112;2024-01-30T08:41:49;99275.13;;;2.71;76.82
21096;BME280;10706;49.036;12.112;2024-01-30T08:44:15;99268.16;;;2.80;77.29
21096;BME280;10706;49.036;12.112;2024-01-30T08:46:40;99277.91;;;2.42;79.13
21096;BME280;10706;49.036;12.112;2024-01-30T08:49:06;99271.50;;;2.45;78.14
21096;BME280;10706;49.036;12.112;2024-01-30T08:51:32;99266.25;;;2.90;77.13
21096;BME280;10706;49.036;12.112;2024-01-30T08:53:57;99262.22;;;2.96;76.03
21096;BME280;10706;49.036;12.112;2024-01-30T08:56:23;99270.91;;;2.79;76.51
21096;BME280;10706;49.036;12.112;2024-01-30T08:58:49;99274.53;;;3.23;76.30
21096;BME280;10706;49.036;12.112;2024-01-30T09:01:15;99272.66;;;3.16;75.69
21096;BME280;10706;49.036;12.112;2024-01-30T09:03:41;99275.41;;;2.96;75.78
21096;BME280;10706;49.036;12.112;2024-01-30T09:06:10;99273.09;;;2.83;76.48
21096;BME280;10706;49.036;12.112;2024-01-30T09:08:35;99269.50;;;2.84;75.91
21096;BME280;10706;49.036;12.112;2024-01-30T09:11:12;99270.25;;;2.95;77.94
21096;BME280;10706;49.036;12.112;2024-01-30T09:13:38;99267.47;;;3.42;76.26
21096;BME280;10706;49.036;12.112;2024-01-30T09:16:04;99276.56;;;3.29;74.43
21096;BME280;10706;49.036;12.112;2024-01-30T09:18:30;99267.47;;;3.42;73.85
21096;BME280;10706;49.036;12.112;2024-01-30T09:20:56;99270.16;;;3.32;73.98
21096;BME280;10706;49.036;12.112;2024-01-30T09:23:22;99280.94;;;3.75;74.49
21096;BME280;10706;49.036;12.112;2024-01-30T09:25:48;99275.53;;;4.02;73.74
21096;BME280;10706;49.036;12.112;2024-01-30T09:28:14;99276.97;;;4.23;72.03
21096;BME280;10706;49.036;12.112;2024-01-30T09:30:40;99275.63;;;3.93;72.15
21096;BME280;10706;49.036;12.112;2024-01-30T09:33:06;99282.56;;;3.94;72.52
21096;BME280;10706;49.036;12.112;2024-01-30T09:35:32;99270.69;;;3.98;72.72
21096;BME280;10706;49.036;12.112;2024-01-30T09:37:59;99269.69;;;3.55;73.53
21096;BME280;10706;49.036;12.112;2024-01-30T09:40:25;99272.41;;;3.45;74.54
21096;BME280;10706;49.036;12.112;2024-01-30T09:42:51;99271.03;;;3.95;73.76
21096;BME280;10706;49.036;12.112;2024-01-30T09:45:24;99274.59;;;4.12;73.49
21096;BME280;10706;49.036;12.112;2024-01-30T09:47:51;99281.59;;;3.95;72.85
21096;BME280;10706;49.036;12.112;2024-01-30T09:50:20;99271.47;;;4.16;71.19
21096;BME280;10706;49.036;12.112;2024-01-30T09:52:47;99274.59;;;4.12;72.98
21096;BME280;10706;49.036;12.112;2024-01-30T09:55:13;99280.28;;;3.99;72.31
21096;BME280;10706;49.036;12.112;2024-01-30T09:57:41;99278.69;;;4.32;72.28
21096;BME280;10706;49.036;12.112;2024-01-30T10:00:07;99271.00;;;4.47;72.75
21096;BME280;10706;49.036;12.112;2024-01-30T10:02:35;99272.09;;;4.71;71.27
21096;BME280;10706;49.036;12.112;2024-01-30T10:05:01;99278.22;;;4.71;71.17
21096;BME280;10706;49.036;12.112;2024-01-30T10:07:27;99277.41;;;4.44;71.85
21096;BME280;10706;49.036;12.112;2024-01-30T10:09:53;99274.19;;;5.01;69.70
21096;BME280;10706;49.036;12.112;2024-01-30T10:12:22;99272.84;;;4.97;68.50
21096;BME280;10706;49.036;12.112;2024-01-30T10:14:48;99272.66;;;4.91;69.31
21096;BME280;10706;49.036;12.112;2024-01-30T10:17:14;99275.75;;;4.70;70.66
21096;BME280;10706;49.036;12.112;2024-01-30T10:19:41;99274.13;;;4.77;70.16
21096;BME280;10706;49.036;12.112;2024-01-30T10:22:07;99265.03;;;4.79;69.73
21096;BME280;10706;49.036;12.112;2024-01-30T10:24:34;99273.81;;;4.88;69.25
21096;BME280;10706;49.036;12.112;2024-01-30T10:27:00;99262.16;;;4.73;70.53
21096;BME280;10706;49.036;12.112;2024-01-30T10:29:27;99267.63;;;5.30;68.72
21096;BME280;10706;49.036;12.112;2024-01-30T10:32:05;99253.69;;;5.20;69.05
21096;BME280;10706;49.036;12.112;2024-01-30T10:34:32;99258.13;;;4.95;68.85
21096;BME280;10706;49.036;12.112;2024-01-30T10:37:09;99253.34;;;5.06;68.34
21096;BME280;10706;49.036;12.112;2024-01-30T10:39:41;99252.66;;;4.96;68.93
21096;BME280;10706;49.036;12.112;2024-01-30T10:42:17;99244.78;;;5.29;68.29
21096;BME280;10706;49.036;12.112;2024-01-30T10:44:56;99242.16;;;5.62;66.89
21096;BME280;10706;49.036;12.112;2024-01-30T10:47:29;99236.34;;;5.42;67.75
21096;BME280;10706;49.036;12.112;2024-01-30T10:49:56;99238.19;;;5.58;67.76
21096;BME280;10706;49.036;12.112;2024-01-30T10:52:24;99238.03;;;5.43;68.46
21096;BME280;10706;49.036;12.112;2024-01-30T10:54:54;99234.53;;;5.34;68.37
21096;BME280;10706;49.036;12.112;2024-01-30T10:57:25;99232.38;;;5.38;68.45
21096;BME280;10706;49.036;12.112;2024-01-30T10:59:56;99224.59;;;5.53;66.36
21096;BME280;10706;49.036;12.112;2024-01-30T11:02:23;99226.56;;;5.83;66.77
21096;BME280;10706;49.036;12.112;2024-01-30T11:04:50;99228.56;;;5.81;66.64
21096;BME280;10706;49.036;12.112;2024-01-30T11:07:28;99234.53;;;5.51;67.40
21096;BME280;10706;49.036;12.112;2024-01-30T11:12:27;99224.44;;;5.46;67.80
21096;BME280;10706;49.036;12.112;2024-01-30T11:20:22;99216.50;;;5.95;67.90
21096;BME280;10706;49.036;12.112;2024-01-30T11:22:56;99199.88;;;6.10;67.22
21096;BME280;10706;49.036;12.112;2024-01-30T11:25:23;99208.81;;;6.25;67.45
21096;BME280;10706;49.036;12.112;2024-01-30T11:27:55;99219.44;;;6.09;66.76
21096;BME280;10706;49.036;12.112;2024-01-30T11:30:32;99208.22;;;6.46;66.70
21096;BME280;10706;49.036;12.112;2024-01-30T11:33:05;99209.47;;;6.67;64.89
21096;BME280;10706;49.036;12.112;2024-01-30T11:35:36;99205.06;;;6.82;64.09
21096;BME280;10706;49.036;12.112;2024-01-30T11:38:03;99206.44;;;6.30;65.94
21096;BME280;10706;49.036;12.112;2024-01-30T11:40:31;99206.56;;;6.45;65.32
21096;BME280;10706;49.036;12.112;2024-01-30T11:42:59;99209.47;;;6.67;64.00
21096;BME280;10706;49.036;12.112;2024-01-30T11:45:27;99204.00;;;6.91;63.44
21096;BME280;10706;49.036;12.112;2024-01-30T11:47:53;99203.44;;;7.04;63.36
21096;BME280;10706;49.036;12.112;2024-01-30T11:50:19;99199.31;;;7.25;62.43
21096;BME280;10706;49.036;12.112;2024-01-30T11:52:45;99201.84;;;7.18;63.46
21096;BME280;10706;49.036;12.112;2024-01-30T11:55:13;99196.53;;;6.95;63.15
21096;BME280;10706;49.036;12.112;2024-01-30T11:57:38;99191.38;;;6.93;63.94
21096;BME280;10706;49.036;12.112;2024-01-30T12:00:05;99192.81;;;7.27;62.87
21096;BME280;10706;49.036;12.112;2024-01-30T12:02:39;99187.09;;;7.38;63.09
21096;BME280;10706;49.036;12.112;2024-01-30T12:05:06;99187.81;;;7.32;63.25
21096;BME280;10706;49.036;12.112;2024-01-30T12:07:33;99179.41;;;7.44;62.23
21096;BME280;10706;49.036;12.112;2024-01-30T12:09:59;99173.91;;;7.45;61.05
21096;BME280;10706;49.036;12.112;2024-01-30T12:12:27;99175.88;;;7.05;62.96
21096;BME280;10706;49.036;12.112;2024-01-30T12:14:53;99174.31;;;6.65;63.01
21096;BME280;10706;49.036;12.112;2024-01-30T12:17:33;99169.59;;;6.75;64.58
21096;BME280;10706;49.036;12.112;2024-01-30T12:20:15;99166.75;;;6.76;64.08
21096;BME280;10706;49.036;12.112;2024-01-30T12:22:49;99165.38;;;7.12;62.82
21096;BME280;10706;49.036;12.112;2024-01-30T12:25:18;99167.34;;;6.64;64.13
21096;BME280;10706;49.036;12.112;2024-01-30T12:27:46;99167.09;;;7.05;63.65
21096;BME280;10706;49.036;12.112;2024-01-30T12:30:16;99165.66;;;7.17;62.96
21096;BME280;10706;49.036;12.112;2024-01-30T12:32:44;99163.28;;;7.60;64.08
21096;BME280;10706;49.036;12.112;2024-01-30T12:35:16;99155.19;;;7.91;62.59
21096;BME280;10706;49.036;12.112;2024-01-30T12:37:47;99160.31;;;8.37;59.90
21096;BME280;10706;49.036;12.112;2024-01-30T12:40:14;99156.13;;;8.13;60.05
21096;BME280;10706;49.036;12.112;2024-01-30T12:42:47;99154.06;;;8.30;59.15
21096;BME280;10706;49.036;12.112;2024-01-30T12:45:15;99153.16;;;8.53;57.75
21096;BME280;10706;49.036;12.112;2024-01-30T12:47:42;99154.69;;;9.20;57.36
21096;BME280;10706;49.036;12.112;2024-01-30T12:50:07;99149.59;;;9.04;57.91
21096;BME280;10706;49.036;12.112;2024-01-30T12:52:35;99147.34;;;9.50;55.33
21096;BME280;10706;49.036;12.112;2024-01-30T12:55:01;99156.56;;;8.83;57.31
21096;BME280;10706;49.036;12.112;2024-01-30T12:57:26;99147.53;;;9.49;55.14
21096;BME280;10706;49.036;12.112;2024-01-30T12:59:52;99148.69;;;9.40;55.55
21096;BME280;10706;49.036;12.112;2024-01-30T13:02:18;99140.81;;;8.67;56.57
21096;BME280;10706;49.036;12.112;2024-01-30T13:04:44;99139.31;;;9.01;56.16